Time;durP1;ratioP1;P1;durP2;ratioP2;P2;SDS_P1;SDS_P2;PMS_P1;PMS_P2;Temp;Humidity;BMP_temperature;BMP_pressure;BME280_temperature;BME280_humidity;BME280_pressure;Samples;Min_cycle;Max_cycle;Signal;HPM_P1;HPM_P2
2023/03/08 08:39:06;;;;;;;12.03;5.30;;;4.00;99.90;;;;;;5353397;22;20476;-45
2023/03/08 08:41:33;;;;;;;12.20;6.57;;;4.10;99.90;;;;;;5054585;28;20447;-47
2023/03/08 08:44:00;;;;;;;8.20;4.97;;;4.20;99.90;;;;;;5039116;28;20484;-47
2023/03/08 08:46:27;;;;;;;12.40;5.20;;;4.30;99.90;;;;;;5039256;28;20488;-39
2023/03/08 08:48:55;;;;;;;9.10;5.30;;;4.40;99.90;;;;;;5038782;28;20472;-44
2023/03/08 08:51:22;;;;;;;6.27;4.07;;;4.40;99.90;;;;;;5038902;28;20437;-48
2023/03/08 08:53:49;;;;;;;5.20;3.60;;;4.30;99.90;;;;;;5038658;28;20464;-41
2023/03/08 08:56:20;;;;;;;13.40;4.27;;;4.30;99.90;;;;;;5038961;28;20420;-50
2023/03/08 08:58:47;;;;;;;6.90;4.30;;;4.40;99.90;;;;;;5038872;28;20476;-46
2023/03/08 09:01:16;;;;;;;7.67;4.73;;;4.60;99.90;;;;;;5038793;28;20417;-51
2023/03/08 09:03:43;;;;;;;11.17;3.87;;;5.20;99.90;;;;;;5039150;28;20536;-43
2023/03/08 09:06:10;;;;;;;6.50;4.33;;;5.80;99.90;;;;;;5038887;28;20473;-43
2023/03/08 09:08:37;;;;;;;4.83;3.67;;;6.30;99.90;;;;;;5038652;28;20476;-42
2023/03/08 09:11:05;;;;;;;6.83;2.97;;;6.40;99.90;;;;;;5037253;28;20493;-49
2023/03/08 09:13:34;;;;;;;6.23;3.00;;;6.80;99.90;;;;;;5038050;28;20484;-42
2023/03/08 09:16:01;;;;;;;5.20;3.07;;;7.20;99.90;;;;;;5037902;28;20456;-42
2023/03/08 09:18:28;;;;;;;4.93;3.53;;;7.60;99.90;;;;;;5037848;28;20500;-45
2023/03/08 09:20:55;;;;;;;4.33;3.60;;;7.80;99.90;;;;;;5037737;28;20441;-49
2023/03/08 09:23:22;;;;;;;5.97;3.80;;;7.90;99.90;;;;;;5038373;28;20477;-46
2023/03/08 09:25:56;;;;;;;5.70;3.53;;;8.10;99.90;;;;;;5038066;28;20441;-44
2023/03/08 09:28:23;;;;;;;4.40;2.60;;;7.80;99.90;;;;;;5038059;28;20475;-46
2023/03/08 09:30:52;;;;;;;5.87;3.03;;;7.50;99.90;;;;;;5037499;28;20453;-48
2023/03/08 09:33:19;;;;;;;9.43;3.10;;;7.30;99.90;;;;;;5037619;28;20464;-41
2023/03/08 09:35:55;;;;;;;5.23;3.47;;;7.20;99.90;;;;;;5037856;28;20484;-48
2023/03/08 09:38:22;;;;;;;5.30;3.37;;;7.00;99.90;;;;;;5037441;28;20479;-44
2023/03/08 09:40:58;;;;;;;3.90;3.30;;;6.90;99.90;;;;;;5038195;28;20445;-44
2023/03/08 09:43:42;;;;;;;4.33;3.47;;;6.80;99.90;;;;;;5037753;28;20520;-40
2023/03/08 09:46:13;;;;;;;8.13;3.97;;;6.60;99.90;;;;;;5037733;28;20428;-46
2023/03/08 09:48:45;;;;;;;6.20;3.70;;;6.40;99.90;;;;;;5036556;28;20504;-43
2023/03/08 09:51:13;;;;;;;8.20;4.00;;;6.20;99.90;;;;;;5038231;28;20503;-42
2023/03/08 09:53:45;;;;;;;5.43;3.30;;;6.10;99.90;;;;;;5037453;28;20464;-43
2023/03/08 09:56:19;;;;;;;9.87;4.20;;;6.20;99.90;;;;;;5037300;28;20485;-42
2023/03/08 09:58:50;;;;;;;5.43;4.10;;;6.40;99.90;;;;;;5036876;28;20469;-44
2023/03/08 10:01:35;;;;;;;9.93;5.30;;;6.50;99.90;;;;;;5036278;28;20445;-50
2023/03/08 10:04:25;;;;;;;10.50;4.53;;;6.80;99.90;;;;;;5036034;28;20476;-45
2023/03/08 10:07:03;;;;;;;5.97;3.10;;;7.20;99.90;;;;;;5038133;28;20417;-43
2023/03/08 10:09:33;;;;;;;5.63;3.83;;;7.80;99.90;;;;;;5037644;28;20528;-45
2023/03/08 10:12:10;;;;;;;5.37;3.33;;;8.50;99.90;;;;;;5037148;28;20452;-44
2023/03/08 10:14:42;;;;;;;6.37;3.30;;;9.00;99.90;;;;;;5036915;28;20469;-43
2023/03/08 10:17:15;;;;;;;4.30;2.87;;;9.50;99.90;;;;;;5036492;28;20922;-49
2023/03/08 10:19:46;;;;;;;5.77;3.13;;;9.30;99.90;;;;;;5036615;28;20473;-46
2023/03/08 10:22:21;;;;;;;5.60;3.07;;;9.20;99.90;;;;;;5028190;28;20468;-46
2023/03/08 10:24:53;;;;;;;4.80;2.80;;;9.30;99.90;;;;;;5033205;28;20862;-45
2023/03/08 10:27:23;;;;;;;4.20;3.13;;;9.20;99.90;;;;;;5037030;28;20473;-46
2023/03/08 10:29:51;;;;;;;3.30;2.50;;;8.80;99.90;;;;;;5036881;28;20469;-42
2023/03/08 10:32:20;;;;;;;6.03;3.60;;;8.50;99.90;;;;;;5036945;28;20456;-45
2023/03/08 10:34:48;;;;;;;8.13;3.80;;;8.20;99.90;;;;;;5028350;28;20956;-45
2023/03/08 10:37:15;;;;;;;5.83;4.40;;;8.00;99.90;;;;;;5032715;28;20448;-44
2023/03/08 10:39:51;;;;;;;4.93;3.13;;;7.90;99.90;;;;;;5028746;28;20556;-47
2023/03/08 10:42:21;;;;;;;4.23;2.67;;;7.60;99.90;;;;;;5032694;28;20503;-45
2023/03/08 10:44:55;;;;;;;5.70;3.60;;;7.40;99.90;;;;;;5036324;28;20480;-61
2023/03/08 10:47:25;;;;;;;6.43;3.30;;;7.10;99.90;;;;;;5036869;28;20417;-63
2023/03/08 10:50:14;;;;;;;4.87;3.20;;;6.80;99.90;;;;;;5036801;28;20456;-65
2023/03/08 10:52:41;;;;;;;3.73;2.73;;;6.70;99.90;;;;;;5036870;28;20469;-64
2023/03/08 10:55:13;;;;;;;3.50;2.70;;;6.70;99.90;;;;;;5037261;28;20469;-64
2023/03/08 10:57:41;;;;;;;3.73;2.83;;;6.50;99.90;;;;;;5036484;28;20409;-57
2023/03/08 11:00:28;;;;;;;3.80;2.77;;;6.40;99.90;;;;;;5031734;28;20487;-60
2023/03/08 11:03:16;;;;;;;3.50;2.57;;;6.60;99.90;;;;;;5028028;28;20521;-63
2023/03/08 11:05:55;;;;;;;20.60;10.90;;;6.60;99.90;;;;;;5025326;28;20469;-59
2023/03/08 11:08:24;;;;;;;2.53;1.97;;;6.60;99.90;;;;;;5032029;28;20417;-58
2023/03/08 11:11:01;;;;;;;5.33;3.30;;;6.40;99.90;;;;;;5026782;28;20458;-53
2023/03/08 11:13:31;;;;;;;4.90;3.20;;;6.30;99.90;;;;;;5029874;28;20697;-60
2023/03/08 11:16:21;;;;;;;7.57;3.90;;;6.30;99.90;;;;;;5025471;28;20520;-56
2023/03/08 11:19:12;;;;;;;5.00;2.77;;;6.20;99.90;;;;;;5029936;28;20453;-53
2023/03/08 11:21:49;;;;;;;4.67;2.90;;;6.20;99.90;;;;;;5028016;28;20505;-61
2023/03/08 11:24:31;;;;;;;4.80;3.17;;;6.20;99.90;;;;;;5026897;28;20468;-60
2023/03/08 11:27:11;;;;;;;4.00;2.03;;;6.20;99.90;;;;;;5033825;28;20437;-61
2023/03/08 11:29:51;;;;;;;4.53;2.37;;;6.20;99.90;;;;;;5026479;28;20477;-53
2023/03/08 11:32:40;;;;;;;12.90;5.67;;;6.30;99.90;;;;;;5033100;28;20468;-60
2023/03/08 11:35:21;;;;;;;6.87;3.60;;;6.30;99.90;;;;;;5024268;28;20472;-56
2023/03/08 11:37:56;;;;;;;6.00;3.83;;;6.40;99.90;;;;;;5036576;28;20441;-66
2023/03/08 11:40:31;;;;;;;16.43;3.73;;;6.50;99.90;;;;;;5036135;28;20455;-62
2023/03/08 11:43:26;;;;;;;8.40;3.73;;;6.50;99.90;;;;;;5016879;28;20446;-62
2023/03/08 11:45:59;;;;;;;9.20;4.30;;;6.60;99.90;;;;;;5030318;28;20477;-58
2023/03/08 11:48:54;;;;;;;4.97;2.20;;;6.60;99.90;;;;;;5019577;28;20473;-62
2023/03/08 11:51:28;;;;;;;4.90;3.37;;;6.70;99.90;;;;;;5026117;28;20466;-61
2023/03/08 11:54:05;;;;;;;3.83;2.83;;;6.70;99.90;;;;;;5024626;28;20431;-58
2023/03/08 11:56:40;;;;;;;3.70;3.00;;;6.70;99.90;;;;;;5025237;28;20450;-61
2023/03/08 11:59:13;;;;;;;8.23;2.57;;;6.60;99.90;;;;;;5034098;28;20429;-53
2023/03/08 12:01:47;;;;;;;5.40;2.97;;;6.60;99.90;;;;;;5023022;28;20493;-59
2023/03/08 12:04:18;;;;;;;4.27;2.47;;;6.50;99.90;;;;;;5036678;28;20460;-59
2023/03/08 12:06:47;;;;;;;3.33;3.03;;;6.50;99.90;;;;;;5021970;28;20487;-65
2023/03/08 12:09:22;;;;;;;4.20;2.30;;;6.50;99.90;;;;;;5030401;28;20444;-56
2023/03/08 12:11:54;;;;;;;5.93;3.27;;;6.40;99.90;;;;;;5032926;28;20463;-58
2023/03/08 12:14:24;;;;;;;4.77;2.73;;;6.40;99.90;;;;;;5026259;28;20480;-59
2023/03/08 12:16:56;;;;;;;7.07;3.43;;;6.40;99.90;;;;;;5032901;28;20473;-59
2023/03/08 12:19:34;;;;;;;9.20;3.20;;;6.50;99.90;;;;;;5030038;28;20438;-58
2023/03/08 12:22:23;;;;;;;5.83;3.03;;;6.60;99.90;;;;;;5036397;28;20463;-59
2023/03/08 12:24:56;;;;;;;4.40;2.83;;;6.90;99.90;;;;;;5025962;28;20464;-60
2023/03/08 12:27:29;;;;;;;8.30;3.00;;;7.20;99.90;;;;;;5027029;28;20466;-60
2023/03/08 12:30:04;;;;;;;3.20;2.90;;;7.30;99.90;;;;;;5034507;28;20436;-64
2023/03/08 12:32:32;;;;;;;4.53;2.60;;;7.30;99.90;;;;;;5029964;28;20477;-56
2023/03/08 12:35:08;;;;;;;5.67;2.97;;;7.10;99.90;;;;;;5019618;28;20414;-62
2023/03/08 12:37:38;;;;;;;3.90;3.07;;;6.90;99.90;;;;;;5036287;28;20505;-65
2023/03/08 12:40:10;;;;;;;5.10;3.20;;;6.70;99.90;;;;;;5020242;28;20473;-61
2023/03/08 12:42:38;;;;;;;2.73;2.30;;;6.60;99.90;;;;;;5022999;28;20479;-65
2023/03/08 12:45:07;;;;;;;17.20;7.27;;;6.60;99.90;;;;;;5021209;28;20473;-66
2023/03/08 12:47:34;;;;;;;7.07;4.00;;;6.60;99.90;;;;;;5016254;28;20505;-64
2023/03/08 12:50:09;;;;;;;3.63;2.50;;;6.60;99.90;;;;;;5018775;28;20488;-65
2023/03/08 12:52:37;;;;;;;4.30;3.00;;;6.50;99.90;;;;;;5033780;28;20486;-61
2023/03/08 12:55:09;;;;;;;3.80;2.70;;;6.40;99.90;;;;;;5038653;28;20444;-63
2023/03/08 12:57:45;;;;;;;4.10;3.00;;;6.40;99.90;;;;;;5038083;28;20475;-59
2023/03/08 13:00:26;;;;;;;3.90;2.87;;;6.40;99.90;;;;;;5039258;28;20433;-62
2023/03/08 13:03:07;;;;;;;9.67;2.50;;;6.30;99.90;;;;;;5037817;28;20492;-63
2023/03/08 13:05:36;;;;;;;3.77;2.70;;;6.30;99.90;;;;;;5038932;28;20452;-60
2023/03/08 13:08:18;;;;;;;5.00;3.40;;;6.20;99.90;;;;;;5039850;28;20467;-63
2023/03/08 13:10:59;;;;;;;3.53;2.43;;;6.30;99.90;;;;;;5039620;28;20433;-61
2023/03/08 13:13:33;;;;;;;6.87;3.30;;;6.30;99.90;;;;;;5039593;28;20484;-56
2023/03/08 13:16:22;;;;;;;4.80;2.80;;;6.30;99.90;;;;;;5038768;28;20421;-64
2023/03/08 13:18:52;;;;;;;6.87;2.40;;;6.20;99.90;;;;;;5037636;28;20460;-64
2023/03/08 13:21:29;;;;;;;4.47;2.80;;;6.10;99.90;;;;;;5038984;28;20464;-62
2023/03/08 13:24:06;;;;;;;2.97;2.60;;;6.10;99.90;;;;;;5039071;28;20414;-59
2023/03/08 13:26:57;;;;;;;5.20;3.80;;;6.00;99.90;;;;;;5038908;28;20417;-63
2023/03/08 13:29:31;;;;;;;6.63;3.47;;;5.90;99.90;;;;;;5038184;28;20457;-56
2023/03/08 13:32:04;;;;;;;4.17;2.77;;;5.80;99.90;;;;;;5037785;28;20460;-63
2023/03/08 13:34:33;;;;;;;6.07;2.73;;;5.70;99.90;;;;;;5037761;28;20512;-64
2023/03/08 13:37:03;;;;;;;3.73;2.60;;;5.60;99.90;;;;;;5038175;28;20467;-62
2023/03/08 13:39:32;;;;;;;8.73;3.50;;;5.60;99.90;;;;;;5038501;28;20436;-63
2023/03/08 13:42:07;;;;;;;5.17;3.47;;;5.50;99.90;;;;;;5038404;28;20484;-65
2023/03/08 13:44:34;;;;;;;6.60;3.73;;;5.50;99.90;;;;;;5038572;28;20467;-63
2023/03/08 13:47:04;;;;;;;5.03;3.60;;;5.40;99.90;;;;;;5038168;28;20428;-62
2023/03/08 13:49:35;;;;;;;8.90;4.07;;;5.40;99.90;;;;;;5038371;28;20428;-66
2023/03/08 13:52:04;;;;;;;5.50;2.30;;;5.30;99.90;;;;;;5038032;28;20413;-62
2023/03/08 13:54:35;;;;;;;4.30;3.50;;;5.20;99.90;;;;;;5038441;28;20429;-60
2023/03/08 13:57:05;;;;;;;8.70;3.40;;;5.20;99.90;;;;;;5037839;28;20476;-61
2023/03/08 13:59:33;;;;;;;6.80;3.70;;;5.20;99.90;;;;;;5038873;28;20464;-59
2023/03/08 14:02:00;;;;;;;5.70;3.63;;;5.20;99.90;;;;;;5037728;28;20437;-68
2023/03/08 14:04:29;;;;;;;8.80;4.10;;;5.20;99.90;;;;;;5016135;28;20477;-61
2023/03/08 14:06:58;;;;;;;6.63;4.00;;;5.20;99.90;;;;;;5012271;28;20454;-63
2023/03/08 14:09:27;;;;;;;8.00;5.97;;;5.30;99.90;;;;;;5009760;28;20457;-63
2023/03/08 14:11:59;;;;;;;7.13;4.50;;;5.30;99.90;;;;;;5019378;28;20457;-63
2023/03/08 14:14:32;;;;;;;7.10;4.20;;;5.30;99.90;;;;;;5037070;28;20469;-62
2023/03/08 14:17:02;;;;;;;7.33;4.23;;;5.30;99.90;;;;;;5038074;28;20424;-52
2023/03/08 14:19:30;;;;;;;6.77;4.13;;;5.10;99.90;;;;;;5037167;28;20472;-64
2023/03/08 14:22:00;;;;;;;10.70;5.67;;;5.00;99.90;;;;;;5037415;28;20452;-60
2023/03/08 14:24:29;;;;;;;6.77;3.67;;;4.90;99.90;;;;;;5036977;28;20457;-61
2023/03/08 14:27:00;;;;;;;6.83;3.93;;;4.80;99.90;;;;;;5037004;28;20441;-63
2023/03/08 14:29:28;;;;;;;11.17;4.33;;;4.70;99.90;;;;;;5036787;28;20471;-62
2023/03/08 14:32:06;;;;;;;4.67;3.67;;;4.60;99.90;;;;;;5036749;28;20501;-66
2023/03/08 14:34:35;;;;;;;15.27;7.33;;;4.50;99.90;;;;;;5036905;28;20472;-59
2023/03/08 14:37:05;;;;;;;7.60;5.03;;;4.50;99.90;;;;;;5030382;28;20461;-58
2023/03/08 14:39:34;;;;;;;8.30;4.10;;;4.40;99.90;;;;;;5028370;28;20466;-56
2023/03/08 14:42:17;;;;;;;7.20;3.73;;;4.40;99.90;;;;;;5030187;28;20434;-58
2023/03/08 14:44:50;;;;;;;6.70;3.47;;;4.40;99.90;;;;;;5030459;28;20473;-58
2023/03/08 14:47:23;;;;;;;8.90;4.00;;;4.30;99.90;;;;;;5037284;28;20432;-60
2023/03/08 14:49:55;;;;;;;7.20;3.83;;;4.30;99.90;;;;;;5026244;28;20456;-53
2023/03/08 14:52:22;;;;;;;7.87;6.20;;;4.20;99.90;;;;;;5022071;28;20426;-58
2023/03/08 14:54:54;;;;;;;13.90;4.30;;;4.20;99.90;;;;;;5018016;28;20561;-65
2023/03/08 14:57:26;;;;;;;9.40;6.43;;;4.10;99.90;;;;;;5019953;28;20446;-63
2023/03/08 15:00:06;;;;;;;9.73;4.80;;;4.00;99.90;;;;;;5024142;28;20488;-59
2023/03/08 15:02:33;;;;;;;7.57;4.27;;;3.90;99.90;;;;;;5023487;28;20469;-62
2023/03/08 15:05:00;;;;;;;13.53;6.33;;;4.00;99.90;;;;;;5037533;28;20481;-62
2023/03/08 15:07:37;;;;;;;9.30;4.73;;;3.90;99.90;;;;;;5037480;28;20469;-65
2023/03/08 15:10:08;;;;;;;14.67;5.53;;;3.90;99.90;;;;;;5036612;28;20472;-60
2023/03/08 15:12:37;;;;;;;6.30;4.17;;;3.90;99.90;;;;;;5035327;28;20443;-60
2023/03/08 15:15:12;;;;;;;5.30;3.97;;;3.80;99.90;;;;;;5028445;28;20492;-65
2023/03/08 15:17:38;;;;;;;7.70;4.87;;;3.90;99.90;;;;;;5024644;28;20432;-56
2023/03/08 15:20:06;;;;;;;9.27;3.70;;;3.80;99.90;;;;;;5036145;28;20445;-62
2023/03/08 15:22:35;;;;;;;8.93;5.33;;;3.70;99.90;;;;;;5037298;28;20432;-55
2023/03/08 15:25:04;;;;;;;7.13;4.27;;;3.70;99.90;;;;;;5037390;28;20515;-61
2023/03/08 15:27:33;;;;;;;10.70;5.43;;;3.60;99.90;;;;;;5036160;28;20452;-63
2023/03/08 15:30:01;;;;;;;11.80;6.70;;;3.60;99.90;;;;;;5019222;28;20466;-64
2023/03/08 15:32:28;;;;;;;13.03;7.00;;;3.60;99.90;;;;;;5016833;28;20472;-62
2023/03/08 15:34:55;;;;;;;9.83;5.70;;;3.60;99.90;;;;;;5016590;28;20473;-63
2023/03/08 15:37:22;;;;;;;7.43;4.70;;;3.70;99.90;;;;;;5016617;28;20438;-61
2023/03/08 15:39:49;;;;;;;8.73;5.83;;;3.70;99.90;;;;;;5016802;28;20453;-58
2023/03/08 15:42:16;;;;;;;9.43;5.23;;;3.70;99.90;;;;;;5026179;28;20453;-64
2023/03/08 15:44:42;;;;;;;9.33;5.27;;;3.60;99.90;;;;;;5020635;28;20426;-58
2023/03/08 15:47:11;;;;;;;9.63;5.60;;;3.60;99.90;;;;;;5036886;28;20480;-61
2023/03/08 15:49:38;;;;;;;7.67;4.00;;;3.70;99.90;;;;;;5037857;28;20464;-60
2023/03/08 15:52:05;;;;;;;10.13;5.03;;;3.70;99.90;;;;;;5037342;28;20465;-58
2023/03/08 15:54:33;;;;;;;11.27;6.57;;;3.70;99.90;;;;;;5037225;28;20429;-57
2023/03/08 15:56:59;;;;;;;8.40;4.73;;;3.70;99.90;;;;;;5036462;28;20471;-61
2023/03/08 15:59:26;;;;;;;10.80;5.47;;;3.70;99.90;;;;;;5036324;28;20430;-65
2023/03/08 16:01:55;;;;;;;8.43;5.37;;;3.70;99.90;;;;;;5036756;28;20476;-57
2023/03/08 16:04:23;;;;;;;11.60;6.00;;;3.70;99.90;;;;;;5037008;28;20429;-54
2023/03/08 16:06:50;;;;;;;11.95;7.57;;;3.70;99.90;;;;;;5036197;28;20508;-60
2023/03/08 16:09:17;;;;;;;9.30;5.93;;;3.70;99.90;;;;;;5037378;28;20206;-60
2023/03/08 16:11:46;;;;;;;22.23;5.40;;;3.70;99.90;;;;;;5036163;28;20490;-50
2023/03/08 16:14:16;;;;;;;8.57;5.57;;;3.70;99.90;;;;;;5036975;28;20445;-56
2023/03/08 16:16:43;;;;;;;10.67;5.27;;;3.70;99.90;;;;;;5037274;28;20520;-53
2023/03/08 16:19:10;;;;;;;8.50;5.13;;;4.10;99.90;;;;;;5037985;28;20448;-63
2023/03/08 16:21:38;;;;;;;10.17;5.73;;;4.70;99.90;;;;;;5040166;28;20469;-61
2023/03/08 16:24:06;;;;;;;8.43;4.00;;;4.50;99.90;;;;;;5039827;28;20445;-65
2023/03/08 16:26:33;;;;;;;13.17;5.20;;;4.30;99.90;;;;;;5039967;28;20465;-60
2023/03/08 16:29:00;;;;;;;6.47;4.50;;;4.10;99.90;;;;;;5040174;28;20420;-56
2023/03/08 16:31:28;;;;;;;12.37;4.23;;;4.00;99.90;;;;;;5040509;28;20448;-58
2023/03/08 16:33:55;;;;;;;5.93;3.57;;;3.90;99.90;;;;;;5040489;28;20437;-63
2023/03/08 16:36:22;;;;;;;5.90;3.67;;;3.80;99.90;;;;;;5039770;28;20445;-67
2023/03/08 16:38:50;;;;;;;4.37;3.50;;;3.80;99.90;;;;;;5040366;28;20440;-63
2023/03/08 16:41:17;;;;;;;3.60;2.80;;;3.70;99.90;;;;;;5039783;28;20449;-65
2023/03/08 16:43:44;;;;;;;9.17;4.67;;;3.60;99.90;;;;;;5039067;28;20463;-63
2023/03/08 16:46:15;;;;;;;7.47;4.47;;;3.60;99.90;;;;;;5039539;28;20496;-63
2023/03/08 16:48:42;;;;;;;5.60;3.83;;;3.60;99.90;;;;;;5038487;28;20458;-62
2023/03/08 16:51:13;;;;;;;8.00;4.10;;;3.60;99.90;;;;;;5039346;28;20457;-62
2023/03/08 16:53:43;;;;;;;7.97;4.80;;;3.60;99.90;;;;;;5039794;28;20508;-60
2023/03/08 16:56:17;;;;;;;8.67;4.80;;;3.60;99.90;;;;;;5039529;28;20441;-65
2023/03/08 16:58:44;;;;;;;9.10;6.23;;;3.60;99.90;;;;;;5039432;28;20453;-58
2023/03/08 17:01:11;;;;;;;8.73;5.23;;;3.60;99.90;;;;;;5039509;28;20445;-58
2023/03/08 17:03:38;;;;;;;13.40;5.83;;;3.60;99.90;;;;;;5039262;28;20465;-59
2023/03/08 17:06:07;;;;;;;7.83;4.97;;;3.60;99.90;;;;;;5039906;28;20468;-55
2023/03/08 17:08:34;;;;;;;6.53;4.30;;;3.60;99.90;;;;;;5039510;28;20528;-62
2023/03/08 17:11:03;;;;;;;8.70;4.63;;;3.50;99.90;;;;;;5039590;28;20509;-57
2023/03/08 17:13:32;;;;;;;8.30;4.97;;;3.50;99.90;;;;;;5039625;28;20476;-62
2023/03/08 17:15:59;;;;;;;5.83;4.67;;;3.50;99.90;;;;;;5040310;28;20448;-63
2023/03/08 17:18:26;;;;;;;8.73;4.80;;;3.50;99.90;;;;;;5039347;28;20481;-58
2023/03/08 17:20:53;;;;;;;9.53;5.47;;;3.40;99.90;;;;;;5039567;28;20429;-62
2023/03/08 17:23:20;;;;;;;7.97;5.47;;;3.40;99.90;;;;;;5039951;28;20452;-60
2023/03/08 17:25:47;;;;;;;9.33;4.37;;;3.40;99.90;;;;;;5039695;28;20473;-59
2023/03/08 17:28:14;;;;;;;8.33;4.10;;;3.40;99.90;;;;;;5039139;28;20485;-54
2023/03/08 17:30:42;;;;;;;5.20;3.30;;;3.30;99.90;;;;;;5026611;28;20422;-58
2023/03/08 17:33:11;;;;;;;9.77;5.47;;;3.30;99.90;;;;;;5027964;28;20460;-63
2023/03/08 17:35:39;;;;;;;6.80;4.77;;;3.30;99.90;;;;;;5038988;28;20425;-60
2023/03/08 17:38:06;;;;;;;6.17;3.83;;;3.30;99.90;;;;;;5038417;28;20433;-62
2023/03/08 17:40:33;;;;;;;3.70;2.90;;;3.30;99.90;;;;;;5039370;28;20430;-63
2023/03/08 17:43:01;;;;;;;6.70;3.97;;;3.30;99.90;;;;;;5039020;28;20433;-66
2023/03/08 17:45:29;;;;;;;8.27;4.60;;;3.20;99.90;;;;;;5038363;28;20461;-63
2023/03/08 17:48:01;;;;;;;5.70;3.33;;;3.20;99.90;;;;;;5039185;28;20451;-61
2023/03/08 17:50:30;;;;;;;12.03;4.40;;;3.10;99.90;;;;;;5039094;28;20430;-61
2023/03/08 17:52:58;;;;;;;5.00;3.60;;;3.10;99.90;;;;;;5039188;28;20441;-55
2023/03/08 17:55:25;;;;;;;5.80;3.90;;;3.10;99.90;;;;;;5039677;28;20449;-56
2023/03/08 17:57:52;;;;;;;7.17;4.63;;;3.10;99.90;;;;;;5039982;28;20448;-67
2023/03/08 18:00:20;;;;;;;8.60;4.90;;;3.10;99.90;;;;;;5039824;28;20548;-63
2023/03/08 18:02:46;;;;;;;8.43;4.70;;;3.10;99.90;;;;;;5039800;28;20425;-58
2023/03/08 18:05:15;;;;;;;7.27;4.60;;;3.10;99.90;;;;;;5039092;28;20469;-56
2023/03/08 18:07:44;;;;;;;7.00;4.70;;;3.10;99.90;;;;;;5039103;28;20472;-58
2023/03/08 18:10:12;;;;;;;7.60;4.57;;;3.10;99.90;;;;;;5039134;28;20453;-61
2023/03/08 18:12:41;;;;;;;7.53;4.37;;;3.10;99.90;;;;;;5031556;28;20457;-54
2023/03/08 18:15:09;;;;;;;8.57;4.40;;;3.10;99.90;;;;;;5020383;28;20486;-62
2023/03/08 18:17:38;;;;;;;12.70;6.70;;;3.10;99.90;;;;;;5038172;28;20496;-60
2023/03/08 18:20:08;;;;;;;8.53;4.70;;;3.10;99.90;;;;;;5037828;28;20456;-59
2023/03/08 18:22:36;;;;;;;11.43;5.10;;;3.10;99.90;;;;;;5037779;28;20464;-62
2023/03/08 18:25:05;;;;;;;7.13;4.63;;;3.20;99.90;;;;;;5037917;28;20436;-58
2023/03/08 18:27:32;;;;;;;10.43;4.13;;;3.20;99.90;;;;;;5038296;28;20464;-65
2023/03/08 18:29:59;;;;;;;7.90;4.30;;;3.20;99.90;;;;;;5037243;28;20437;-60
2023/03/08 18:32:26;;;;;;;7.07;3.60;;;3.20;99.90;;;;;;5037325;28;20464;-59
2023/03/08 18:34:53;;;;;;;6.07;4.70;;;3.20;99.90;;;;;;5032245;28;20429;-59
2023/03/08 18:37:20;;;;;;;6.63;4.40;;;3.10;99.90;;;;;;5037709;28;20468;-55
2023/03/08 18:40:08;;;;;;;8.30;4.53;;;3.20;99.90;;;;;;5037821;28;20433;-61
2023/03/08 18:42:35;;;;;;;7.07;4.00;;;3.20;99.90;;;;;;5036263;28;20468;-60
2023/03/08 18:45:05;;;;;;;9.03;4.13;;;3.20;99.90;;;;;;5037544;28;20437;-62
2023/03/08 18:47:32;;;;;;;5.73;3.47;;;3.10;99.90;;;;;;5037266;28;20477;-63
2023/03/08 18:49:59;;;;;;;5.90;3.20;;;3.10;99.90;;;;;;5037593;28;20481;-58
2023/03/08 18:52:29;;;;;;;7.67;4.23;;;3.10;99.90;;;;;;5038289;28;20465;-59
2023/03/08 18:55:00;;;;;;;5.10;3.77;;;3.10;99.90;;;;;;5038050;28;20496;-60
2023/03/08 18:57:27;;;;;;;5.27;3.87;;;3.00;99.90;;;;;;5038151;28;20444;-58
2023/03/08 18:59:54;;;;;;;3.20;2.37;;;3.00;99.90;;;;;;5037870;28;20464;-60
2023/03/08 19:02:24;;;;;;;4.30;2.80;;;3.00;99.90;;;;;;5037918;28;20429;-63
2023/03/08 19:04:51;;;;;;;3.60;2.70;;;2.90;99.90;;;;;;5038120;28;20456;-60
2023/03/08 19:07:18;;;;;;;14.13;3.87;;;2.90;99.90;;;;;;5037491;28;20488;-58
2023/03/08 19:09:51;;;;;;;6.30;3.33;;;2.90;99.90;;;;;;5037258;28;20436;-59
2023/03/08 19:12:19;;;;;;;9.80;3.30;;;2.90;99.90;;;;;;5037616;28;20428;-64
2023/03/08 19:14:47;;;;;;;5.00;3.27;;;2.90;99.90;;;;;;5037842;28;20430;-61
2023/03/08 19:17:14;;;;;;;3.97;3.43;;;2.80;99.90;;;;;;5037791;28;20507;-61
2023/03/08 19:19:46;;;;;;;7.30;3.40;;;2.80;99.90;;;;;;5037575;28;20460;-64
2023/03/08 19:22:16;;;;;;;3.73;2.70;;;2.90;99.90;;;;;;5037414;28;20469;-58
2023/03/08 19:24:43;;;;;;;4.53;3.20;;;2.80;99.90;;;;;;5037655;28;20433;-55
2023/03/08 19:27:12;;;;;;;4.13;3.50;;;2.80;99.90;;;;;;5037400;28;20484;-57
2023/03/08 19:29:40;;;;;;;9.23;3.40;;;2.80;99.90;;;;;;5037453;28;20433;-61
2023/03/08 19:32:14;;;;;;;6.43;3.60;;;2.80;99.90;;;;;;5037476;28;20477;-57
2023/03/08 19:34:43;;;;;;;9.43;3.70;;;2.80;99.90;;;;;;5037346;28;20421;-60
2023/03/08 19:37:13;;;;;;;4.30;3.00;;;2.90;99.90;;;;;;5037258;28;20449;-56
2023/03/08 19:39:45;;;;;;;7.50;4.50;;;2.90;99.90;;;;;;5037371;28;20480;-55
2023/03/08 19:42:16;;;;;;;3.90;3.40;;;2.80;99.90;;;;;;5037293;28;20479;-61
2023/03/08 19:44:47;;;;;;;5.70;4.40;;;2.80;99.90;;;;;;5037175;28;20460;-63
2023/03/08 19:47:18;;;;;;;31.93;3.97;;;2.80;99.90;;;;;;5037105;28;20460;-58
2023/03/08 19:49:46;;;;;;;9.43;4.57;;;2.90;99.90;;;;;;5036959;28;20524;-55
2023/03/08 19:52:14;;;;;;;7.17;3.73;;;2.90;99.90;;;;;;5037432;28;20437;-53
2023/03/08 19:54:41;;;;;;;7.30;3.90;;;2.90;99.90;;;;;;5040150;28;20484;-55
2023/03/08 19:57:09;;;;;;;7.30;4.30;;;2.90;99.90;;;;;;5043998;28;20449;-60
2023/03/08 19:59:36;;;;;;;7.77;4.60;;;2.90;99.90;;;;;;5044034;28;20425;-52
2023/03/08 20:02:07;;;;;;;10.57;4.37;;;2.90;99.90;;;;;;5043708;28;20440;-61
2023/03/08 20:04:35;;;;;;;10.10;4.20;;;3.00;99.90;;;;;;5043996;28;20460;-59
2023/03/08 20:07:03;;;;;;;8.20;4.00;;;2.90;99.90;;;;;;5043357;28;20519;-62
2023/03/08 20:09:30;;;;;;;7.60;4.50;;;2.90;99.90;;;;;;5043881;28;20441;-58
2023/03/08 20:11:57;;;;;;;10.77;4.30;;;2.90;99.90;;;;;;5043212;28;20460;-59
2023/03/08 20:14:25;;;;;;;6.20;2.97;;;2.90;99.90;;;;;;5043337;28;20436;-60
2023/03/08 20:16:55;;;;;;;9.93;5.60;;;2.90;99.90;;;;;;5043487;28;20493;-58
2023/03/08 20:19:23;;;;;;;6.70;4.07;;;3.00;99.90;;;;;;5043626;28;20417;-59
2023/03/08 20:21:52;;;;;;;11.83;5.00;;;3.00;99.90;;;;;;5043489;28;20464;-62
2023/03/08 20:24:21;;;;;;;6.30;3.63;;;3.00;99.90;;;;;;5043219;28;20468;-64
2023/03/08 20:26:47;;;;;;;10.13;4.80;;;3.00;99.90;;;;;;5043454;28;20504;-58
2023/03/08 20:29:14;;;;;;;8.17;4.40;;;3.00;99.90;;;;;;5043029;28;20483;-60
2023/03/08 20:31:42;;;;;;;7.87;3.83;;;2.90;99.90;;;;;;5043346;28;20440;-56
2023/03/08 20:34:11;;;;;;;5.83;3.80;;;3.00;99.90;;;;;;5043315;28;20475;-60
2023/03/08 20:36:40;;;;;;;7.50;4.30;;;3.00;99.90;;;;;;5042973;28;20465;-61
2023/03/08 20:39:09;;;;;;;8.40;6.17;;;3.00;99.90;;;;;;5042871;28;20457;-56
2023/03/08 20:41:38;;;;;;;9.77;4.80;;;3.00;99.90;;;;;;5042614;28;20544;-61
2023/03/08 20:44:13;;;;;;;7.17;3.80;;;3.00;99.90;;;;;;5043027;28;20425;-61
2023/03/08 20:46:42;;;;;;;8.47;4.30;;;3.00;99.90;;;;;;5042760;28;20491;-55
2023/03/08 20:49:11;;;;;;;10.17;5.83;;;3.10;99.90;;;;;;5043035;28;20439;-62
2023/03/08 20:51:41;;;;;;;6.73;4.67;;;3.00;99.90;;;;;;5041928;28;20537;-57
2023/03/08 20:54:11;;;;;;;8.97;4.70;;;3.00;99.90;;;;;;5042756;28;20455;-62
2023/03/08 20:56:40;;;;;;;14.73;6.27;;;3.00;99.90;;;;;;5042913;28;20452;-63
2023/03/08 20:59:13;;;;;;;9.97;5.23;;;3.00;99.90;;;;;;5042608;28;20485;-61
2023/03/08 21:01:45;;;;;;;10.47;4.60;;;3.00;99.90;;;;;;5041879;28;20421;-63
2023/03/08 21:04:12;;;;;;;11.37;6.10;;;3.00;99.90;;;;;;5041988;28;20432;-60
2023/03/08 21:06:41;;;;;;;8.20;5.60;;;3.00;99.90;;;;;;5039036;28;20455;-63
2023/03/08 21:09:11;;;;;;;9.23;5.00;;;3.00;99.90;;;;;;5038390;28;20453;-64
2023/03/08 21:11:38;;;;;;;14.10;6.70;;;3.00;99.90;;;;;;5038966;28;20441;-60
2023/03/08 21:14:05;;;;;;;10.27;7.47;;;3.00;99.90;;;;;;5037971;28;20495;-66
2023/03/08 21:16:33;;;;;;;14.27;7.30;;;3.00;99.90;;;;;;5038938;28;20426;-61
2023/03/08 21:19:01;;;;;;;11.27;5.83;;;3.00;99.90;;;;;;5038835;28;20449;-61
2023/03/08 21:21:34;;;;;;;13.37;5.90;;;3.00;99.90;;;;;;5039239;28;20433;-60
2023/03/08 21:24:05;;;;;;;9.50;6.67;;;3.00;99.90;;;;;;5039153;28;20417;-55
2023/03/08 21:26:33;;;;;;;23.90;10.93;;;3.00;99.90;;;;;;5039554;28;20446;-52
2023/03/08 21:29:02;;;;;;;12.73;7.93;;;3.00;99.90;;;;;;5039485;28;20596;-56
2023/03/08 21:31:30;;;;;;;12.20;7.70;;;3.00;99.90;;;;;;5039278;28;20468;-58
2023/03/08 21:34:01;;;;;;;11.83;7.07;;;3.00;99.90;;;;;;5039080;28;20476;-58
2023/03/08 21:36:31;;;;;;;14.83;7.80;;;3.00;99.90;;;;;;5038859;28;20469;-64
2023/03/08 21:38:59;;;;;;;12.10;5.93;;;3.00;99.90;;;;;;5039003;28;20448;-59
2023/03/08 21:41:29;;;;;;;12.67;5.57;;;3.00;99.90;;;;;;5038846;28;20473;-61
2023/03/08 21:43:56;;;;;;;7.80;5.17;;;3.10;99.90;;;;;;5038967;28;20460;-62
2023/03/08 21:46:24;;;;;;;8.00;4.87;;;3.10;99.90;;;;;;5038914;28;20441;-61
2023/03/08 21:48:51;;;;;;;10.10;5.50;;;3.10;99.90;;;;;;5038964;28;20515;-59
2023/03/08 21:51:18;;;;;;;6.53;4.37;;;3.10;99.90;;;;;;5038861;28;20445;-61